Time;durP1;ratioP1;P1;durP2;ratioP2;P2;SDS_P1;SDS_P2;PMS_P1;PMS_P2;Temp;Humidity;BMP_temperature;BMP_pressure;BME280_temperature;BME280_humidity;BME280_pressure;Samples;Min_cycle;Max_cycle;Signal;HPM_P1;HPM_P2
2021/11/23 00:00:46;;;;;;;1.95;1.27;;;;;;;;;;4847841;29;32150;-70
2021/11/23 00:03:17;;;;;;;2.50;1.10;;;;;;;;;;4848260;29;32352;-71
2021/11/23 00:05:44;;;;;;;1.33;1.10;;;;;;;;;;4848151;29;34449;-70
2021/11/23 00:08:11;;;;;;;1.48;1.23;;;;;;;;;;4845474;29;32228;-68
2021/11/23 00:10:40;;;;;;;1.48;0.88;;;;;;;;;;4847086;29;32317;-68
2021/11/23 00:13:09;;;;;;;1.20;1.05;;;;;;;;;;4845270;29;32264;-70
2021/11/23 00:15:35;;;;;;;1.15;1.05;;;;;;;;;;4845543;29;32321;-69
2021/11/23 00:18:04;;;;;;;3.83;1.15;;;;;;;;;;4845489;29;34569;-70
2021/11/23 00:20:31;;;;;;;2.78;1.25;;;;;;;;;;4845462;29;32308;-69
2021/11/23 00:22:58;;;;;;;2.63;0.95;;;;;;;;;;4845273;29;32577;-70
2021/11/23 00:25:26;;;;;;;1.70;1.02;;;;;;;;;;4845872;29;32190;-69
2021/11/23 00:27:53;;;;;;;1.70;1.17;;;;;;;;;;4847708;29;34075;-68
2021/11/23 00:30:21;;;;;;;1.25;1.10;;;;;;;;;;4847784;29;32342;-69
2021/11/23 00:32:48;;;;;;;3.45;1.10;;;;;;;;;;4847926;29;32300;-71
2021/11/23 00:35:15;;;;;;;2.50;1.13;;;;;;;;;;4847671;29;32155;-70
2021/11/23 00:37:46;;;;;;;1.20;1.05;;;;;;;;;;4847283;29;32288;-71
2021/11/23 00:40:14;;;;;;;2.78;0.85;;;;;;;;;;4847205;29;35271;-74
2021/11/23 00:42:40;;;;;;;2.60;1.15;;;;;;;;;;4846436;29;32586;-73
2021/11/23 00:45:09;;;;;;;1.70;1.30;;;;;;;;;;4847484;29;32576;-73
2021/11/23 00:47:38;;;;;;;1.58;1.30;;;;;;;;;;4848182;29;32264;-71
2021/11/23 00:50:07;;;;;;;1.95;0.93;;;;;;;;;;4846583;29;33876;-72
2021/11/23 00:52:34;;;;;;;1.65;1.15;;;;;;;;;;4845218;29;32418;-70
2021/11/23 00:55:00;;;;;;;2.97;1.20;;;;;;;;;;4844921;29;32581;-70
2021/11/23 00:57:27;;;;;;;1.48;1.38;;;;;;;;;;4845219;29;32272;-71
2021/11/23 00:59:53;;;;;;;1.42;1.20;;;;;;;;;;4845151;29;32248;-72
2021/11/23 01:02:20;;;;;;;2.97;1.02;;;;;;;;;;4844287;29;33909;-70
2021/11/23 01:04:48;;;;;;;2.03;1.25;;;;;;;;;;4844416;29;32410;-72
2021/11/23 01:07:15;;;;;;;1.77;0.93;;;;;;;;;;4844324;29;32258;-73
2021/11/23 01:09:41;;;;;;;3.78;1.35;;;;;;;;;;4844452;29;32293;-72
2021/11/23 01:12:08;;;;;;;0.88;0.88;;;;;;;;;;4843876;29;34208;-74
2021/11/23 01:14:36;;;;;;;1.33;0.90;;;;;;;;;;4844322;29;32382;-73
2021/11/23 01:17:03;;;;;;;2.30;1.23;;;;;;;;;;4845439;29;32247;-73
2021/11/23 01:19:30;;;;;;;1.38;1.08;;;;;;;;;;4846443;29;32304;-70
2021/11/23 01:21:58;;;;;;;1.10;1.00;;;;;;;;;;4849499;29;32328;-69
2021/11/23 01:24:24;;;;;;;1.20;0.82;;;;;;;;;;4848007;29;34987;-70
2021/11/23 01:26:51;;;;;;;2.05;0.75;;;;;;;;;;4836740;29;32063;-71
2021/11/23 01:29:18;;;;;;;1.85;1.02;;;;;;;;;;4831377;29;32293;-69
2021/11/23 01:31:44;;;;;;;2.00;0.70;;;;;;;;;;4846481;29;32155;-70
2021/11/23 01:34:11;;;;;;;1.52;1.17;;;;;;;;;;4848662;29;35893;-70
2021/11/23 01:36:38;;;;;;;1.95;1.17;;;;;;;;;;4849070;29;32290;-69
2021/11/23 01:39:06;;;;;;;1.83;1.30;;;;;;;;;;4849255;29;32345;-71
2021/11/23 01:41:32;;;;;;;5.18;1.08;;;;;;;;;;4849622;29;32229;-70
2021/11/23 01:43:59;;;;;;;2.75;1.33;;;;;;;;;;4850320;29;32237;-69
2021/11/23 01:46:25;;;;;;;2.22;0.82;;;;;;;;;;4838375;29;34848;-71
2021/11/23 01:48:52;;;;;;;3.90;1.35;;;;;;;;;;4831459;29;32380;-71
2021/11/23 01:51:19;;;;;;;3.10;1.10;;;;;;;;;;4831635;29;32155;-70
2021/11/23 01:53:46;;;;;;;4.72;1.30;;;;;;;;;;4831056;29;32145;-70
2021/11/23 01:56:14;;;;;;;3.00;1.30;;;;;;;;;;4830672;29;34426;-70
2021/11/23 01:58:41;;;;;;;3.75;1.23;;;;;;;;;;4831010;29;32166;-71
2021/11/23 02:01:08;;;;;;;6.82;1.42;;;;;;;;;;4830679;29;32214;-71
2021/11/23 02:03:36;;;;;;;1.63;1.05;;;;;;;;;;4830639;29;32766;-69
2021/11/23 02:06:03;;;;;;;2.95;1.20;;;;;;;;;;4830785;29;32213;-69
2021/11/23 02:08:30;;;;;;;2.50;0.80;;;;;;;;;;4830792;29;34743;-72
2021/11/23 02:10:56;;;;;;;1.38;1.02;;;;;;;;;;4837104;29;32492;-72
2021/11/23 02:13:28;;;;;;;1.65;1.52;;;;;;;;;;4849032;29;32280;-69
2021/11/23 02:15:56;;;;;;;3.83;1.33;;;;;;;;;;4849071;29;32280;-71
2021/11/23 02:18:24;;;;;;;2.60;1.25;;;;;;;;;;4848855;29;34931;-72
2021/11/23 02:20:53;;;;;;;1.63;0.82;;;;;;;;;;4842507;29;32313;-73
2021/11/23 02:23:21;;;;;;;3.35;1.25;;;;;;;;;;4841544;29;32231;-72
2021/11/23 02:25:48;;;;;;;3.83;1.40;;;;;;;;;;4843067;29;32213;-70
2021/11/23 02:28:16;;;;;;;4.13;1.35;;;;;;;;;;4848009;29;32216;-72
2021/11/23 02:30:45;;;;;;;2.50;1.02;;;;;;;;;;4845904;29;34219;-69
2021/11/23 02:33:13;;;;;;;3.83;1.38;;;;;;;;;;4837776;29;32286;-70
2021/11/23 02:35:40;;;;;;;3.30;1.25;;;;;;;;;;4840853;29;32269;-69
2021/11/23 02:38:08;;;;;;;1.42;0.95;;;;;;;;;;4848084;29;32287;-72
2021/11/23 02:40:35;;;;;;;2.47;0.90;;;;;;;;;;4847210;29;33947;-72
2021/11/23 02:43:01;;;;;;;2.92;1.33;;;;;;;;;;4839160;29;32373;-74
2021/11/23 02:45:28;;;;;;;4.43;1.20;;;;;;;;;;4847661;29;32261;-73
2021/11/23 02:47:58;;;;;;;2.72;1.35;;;;;;;;;;4838043;29;32300;-71
2021/11/23 02:50:26;;;;;;;2.47;1.45;;;;;;;;;;4831370;29;32274;-74
2021/11/23 02:52:54;;;;;;;2.40;1.38;;;;;;;;;;4832942;29;35094;-76
2021/11/23 02:55:25;;;;;;;2.83;1.23;;;;;;;;;;4847811;29;32209;-67
2021/11/23 02:57:52;;;;;;;4.13;1.13;;;;;;;;;;4847901;29;32295;-69
2021/11/23 03:00:21;;;;;;;4.18;1.20;;;;;;;;;;4848357;29;32063;-70
2021/11/23 03:02:48;;;;;;;1.58;1.40;;;;;;;;;;4841407;29;33900;-71
2021/11/23 03:05:17;;;;;;;4.35;1.08;;;;;;;;;;4838923;29;32297;-69
2021/11/23 03:07:44;;;;;;;1.23;1.02;;;;;;;;;;4825816;29;32336;-71
2021/11/23 03:10:12;;;;;;;2.97;1.67;;;;;;;;;;4845047;29;32241;-71
2021/11/23 03:12:39;;;;;;;;;;;;;;;;;;4844589;29;32175;-68
2021/11/23 03:15:09;;;;;;;2.83;1.67;;;;;;;;;;4829705;29;34811;-68
2021/11/23 03:17:35;;;;;;;4.47;1.40;;;;;;;;;;4829700;29;32550;-71
2021/11/23 03:20:05;;;;;;;1.70;1.23;;;;;;;;;;4829101;29;32522;-69
2021/11/23 03:22:31;;;;;;;3.00;1.92;;;;;;;;;;4842180;29;32097;-69
2021/11/23 03:24:58;;;;;;;1.92;1.42;;;;;;;;;;4847890;29;33966;-72
2021/11/23 03:27:25;;;;;;;4.15;1.55;;;;;;;;;;4848154;29;32474;-73
2021/11/23 03:29:54;;;;;;;2.90;1.05;;;;;;;;;;4845970;29;32142;-73
2021/11/23 03:32:21;;;;;;;2.53;1.33;;;;;;;;;;4846570;29;32360;-72
2021/11/23 03:34:49;;;;;;;1.70;1.35;;;;;;;;;;4847028;29;32264;-73
2021/11/23 03:37:20;;;;;;;1.45;1.17;;;;;;;;;;4836191;29;35461;-72
2021/11/23 03:39:48;;;;;;;2.28;1.02;;;;;;;;;;4828478;29;32305;-72
2021/11/23 03:42:14;;;;;;;2.75;1.23;;;;;;;;;;4827699;29;32202;-72
2021/11/23 03:44:41;;;;;;;1.98;1.25;;;;;;;;;;4827812;29;32348;-72
2021/11/23 03:47:10;;;;;;;2.35;1.42;;;;;;;;;;4828824;29;35329;-72
2021/11/23 03:49:37;;;;;;;3.00;1.38;;;;;;;;;;4829318;29;32262;-72
2021/11/23 03:52:05;;;;;;;1.98;1.25;;;;;;;;;;4828674;29;32353;-72
2021/11/23 03:54:32;;;;;;;4.97;1.13;;;;;;;;;;4828582;29;32224;-72
2021/11/23 03:56:59;;;;;;;4.85;1.50;;;;;;;;;;4829469;29;32376;-72
2021/11/23 03:59:25;;;;;;;2.70;1.70;;;;;;;;;;4828724;29;34981;-72
2021/11/23 04:01:52;;;;;;;3.10;1.20;;;;;;;;;;4828959;29;32019;-72
2021/11/23 04:04:20;;;;;;;1.67;0.90;;;;;;;;;;4828411;29;32228;-73
2021/11/23 04:06:47;;;;;;;2.45;1.52;;;;;;;;;;4829234;29;32245;-72
2021/11/23 04:09:14;;;;;;;3.67;1.20;;;;;;;;;;4828608;29;34499;-72
2021/11/23 04:11:40;;;;;;;4.72;1.45;;;;;;;;;;4828196;29;32164;-71
2021/11/23 04:14:07;;;;;;;3.22;1.20;;;;;;;;;;4828522;29;32353;-71
2021/11/23 04:16:34;;;;;;;2.05;1.20;;;;;;;;;;4828690;29;32423;-72
2021/11/23 04:19:01;;;;;;;2.17;1.23;;;;;;;;;;4839708;29;32367;-72
2021/11/23 04:21:29;;;;;;;3.58;1.20;;;;;;;;;;4845424;29;34071;-71
2021/11/23 04:23:55;;;;;;;2.85;1.35;;;;;;;;;;4845584;29;32217;-71
2021/11/23 04:26:22;;;;;;;2.50;1.45;;;;;;;;;;4846935;29;32216;-71
2021/11/23 04:28:48;;;;;;;2.55;1.23;;;;;;;;;;4847171;29;32461;-70
2021/11/23 04:31:15;;;;;;;3.00;1.20;;;;;;;;;;4845672;29;35036;-71
2021/11/23 04:33:41;;;;;;;3.08;1.35;;;;;;;;;;4846929;29;32155;-72
2021/11/23 04:36:08;;;;;;;4.97;1.63;;;;;;;;;;4847200;29;32387;-72
2021/11/23 04:38:36;;;;;;;2.63;1.38;;;;;;;;;;4842918;29;32252;-69
2021/11/23 04:41:03;;;;;;;6.80;1.50;;;;;;;;;;4838270;29;32317;-69
2021/11/23 04:43:30;;;;;;;5.68;1.55;;;;;;;;;;4838376;29;33989;-69
2021/11/23 04:45:58;;;;;;;5.00;1.73;;;;;;;;;;4837354;29;32254;-69
2021/11/23 04:48:25;;;;;;;5.53;1.48;;;;;;;;;;4836966;29;32629;-69
2021/11/23 04:50:52;;;;;;;2.63;1.40;;;;;;;;;;4836458;29;32571;-69
2021/11/23 04:53:18;;;;;;;7.55;1.20;;;;;;;;;;4837644;29;35042;-69
2021/11/23 04:55:46;;;;;;;4.57;1.30;;;;;;;;;;4840172;29;32075;-70
2021/11/23 04:58:13;;;;;;;6.30;1.73;;;;;;;;;;4841339;29;32190;-68
2021/11/23 05:00:40;;;;;;;7.20;1.52;;;;;;;;;;4840461;29;32223;-70
2021/11/23 05:03:06;;;;;;;4.22;2.15;;;;;;;;;;4840358;29;32046;-69
2021/11/23 05:05:33;;;;;;;4.07;1.90;;;;;;;;;;4839787;29;34202;-69
2021/11/23 05:08:00;;;;;;;2.10;1.35;;;;;;;;;;4839257;29;32406;-68
2021/11/23 05:10:27;;;;;;;6.78;1.42;;;;;;;;;;4841211;29;32221;-68
2021/11/23 05:12:56;;;;;;;9.68;1.88;;;;;;;;;;4840316;29;32178;-68
2021/11/23 05:15:23;;;;;;;9.25;1.25;;;;;;;;;;4838653;29;35264;-69
2021/11/23 05:17:49;;;;;;;6.82;1.70;;;;;;;;;;4840245;29;32468;-70
2021/11/23 05:20:16;;;;;;;6.68;1.63;;;;;;;;;;4840530;29;32019;-68
2021/11/23 05:22:42;;;;;;;5.72;2.15;;;;;;;;;;4845624;29;32216;-68
2021/11/23 05:25:09;;;;;;;3.97;1.25;;;;;;;;;;4849608;29;32350;-68
2021/11/23 05:27:36;;;;;;;4.45;2.33;;;;;;;;;;4849058;29;35606;-68
2021/11/23 05:30:06;;;;;;;3.17;1.27;;;;;;;;;;4848434;29;32608;-68
2021/11/23 05:32:33;;;;;;;5.28;2.00;;;;;;;;;;4849326;29;32242;-68
2021/11/23 05:34:59;;;;;;;3.05;1.92;;;;;;;;;;4849735;29;32147;-68
2021/11/23 05:37:26;;;;;;;5.07;2.03;;;;;;;;;;4848892;29;34794;-68
2021/11/23 05:39:52;;;;;;;3.92;1.95;;;;;;;;;;4845726;29;32282;-68
2021/11/23 05:42:19;;;;;;;10.50;1.92;;;;;;;;;;4840972;29;32288;-69
2021/11/23 05:44:45;;;;;;;6.00;1.85;;;;;;;;;;4830603;29;32380;-69
2021/11/23 05:47:13;;;;;;;5.00;1.70;;;;;;;;;;4830342;29;32315;-69
2021/11/23 05:49:41;;;;;;;5.60;2.03;;;;;;;;;;4832060;29;34471;-70
2021/11/23 05:52:08;;;;;;;5.30;1.80;;;;;;;;;;4837603;29;32022;-67
2021/11/23 05:54:35;;;;;;;7.07;2.38;;;;;;;;;;4841451;29;32291;-68
2021/11/23 05:57:01;;;;;;;7.07;1.98;;;;;;;;;;4840271;29;32185;-68
2021/11/23 05:59:28;;;;;;;7.03;2.03;;;;;;;;;;4839393;29;34979;-69
2021/11/23 06:01:55;;;;;;;7.47;2.10;;;;;;;;;;4839689;29;32769;-68
2021/11/23 06:04:23;;;;;;;6.38;2.10;;;;;;;;;;4839718;29;32340;-68
2021/11/23 06:06:49;;;;;;;4.53;2.33;;;;;;;;;;4832007;29;32237;-68
2021/11/23 06:09:16;;;;;;;5.93;2.75;;;;;;;;;;4830619;29;32268;-68
2021/11/23 06:11:42;;;;;;;5.88;2.50;;;;;;;;;;4843227;29;35436;-68
2021/11/23 06:14:09;;;;;;;8.50;2.65;;;;;;;;;;4844113;29;32278;-68
2021/11/23 06:16:37;;;;;;;7.78;2.88;;;;;;;;;;4839844;29;32164;-68
2021/11/23 06:19:04;;;;;;;7.40;2.95;;;;;;;;;;4837563;29;32151;-68
2021/11/23 06:21:32;;;;;;;8.82;3.13;;;;;;;;;;4839108;29;35384;-68
2021/11/23 06:23:58;;;;;;;5.15;2.45;;;;;;;;;;4830879;29;32429;-68
2021/11/23 06:26:25;;;;;;;6.32;3.50;;;;;;;;;;4830327;29;32582;-70
2021/11/23 06:28:51;;;;;;;10.98;2.55;;;;;;;;;;4829927;29;32012;-68
2021/11/23 06:31:18;;;;;;;8.45;2.67;;;;;;;;;;4830148;29;32280;-68
2021/11/23 06:33:46;;;;;;;7.18;2.20;;;;;;;;;;4829077;29;34218;-68
2021/11/23 06:36:12;;;;;;;9.00;2.35;;;;;;;;;;4828950;29;32176;-69
2021/11/23 06:38:40;;;;;;;6.05;2.92;;;;;;;;;;4829466;29;32309;-69
2021/11/23 06:41:07;;;;;;;6.35;2.40;;;;;;;;;;4828360;29;32374;-69
2021/11/23 06:43:33;;;;;;;5.65;2.45;;;;;;;;;;4828907;29;34647;-69
2021/11/23 06:46:00;;;;;;;5.45;2.13;;;;;;;;;;4835431;29;32381;-69
2021/11/23 06:48:26;;;;;;;3.58;1.65;;;;;;;;;;4848473;29;32280;-68
2021/11/23 06:50:53;;;;;;;6.20;1.75;;;;;;;;;;4849073;29;32252;-69
2021/11/23 06:53:20;;;;;;;7.45;1.60;;;;;;;;;;4848559;29;32381;-69
2021/11/23 06:55:48;;;;;;;6.78;1.63;;;;;;;;;;4847850;29;32253;-69
2021/11/23 06:58:14;;;;;;;6.07;2.05;;;;;;;;;;4847605;29;32291;-69
2021/11/23 07:00:41;;;;;;;4.15;1.70;;;;;;;;;;4847946;29;32389;-68
2021/11/23 07:03:08;;;;;;;4.25;1.90;;;;;;;;;;4848534;29;32482;-69
2021/11/23 07:05:35;;;;;;;;;;;;;;;;;;4848579;29;35310;-68
2021/11/23 07:08:01;;;;;;;5.75;1.58;;;;;;;;;;4848028;29;32205;-68
2021/11/23 07:10:28;;;;;;;8.27;1.90;;;;;;;;;;4848279;29;32275;-68
2021/11/23 07:12:56;;;;;;;4.40;1.63;;;;;;;;;;4848520;29;32574;-69
2021/11/23 07:15:22;;;;;;;7.75;1.92;;;;;;;;;;4848455;29;32151;-68
2021/11/23 07:17:49;;;;;;;5.47;1.40;;;;;;;;;;4847078;29;32213;-70
2021/11/23 07:20:16;;;;;;;3.25;1.52;;;;;;;;;;4847643;29;32346;-69
2021/11/23 07:22:42;;;;;;;4.40;1.63;;;;;;;;;;4847662;29;32233;-69
2021/11/23 07:25:10;;;;;;;4.50;1.90;;;;;;;;;;4847971;29;32250;-69
2021/11/23 07:27:36;;;;;;;3.55;2.05;;;;;;;;;;4847899;29;34030;-69
2021/11/23 07:30:06;;;;;;;3.72;1.45;;;;;;;;;;4847748;29;32441;-69
2021/11/23 07:32:34;;;;;;;2.63;1.45;;;;;;;;;;4848079;29;32413;-69
2021/11/23 07:35:01;;;;;;;6.35;2.17;;;;;;;;;;4847929;29;32420;-70
2021/11/23 07:37:29;;;;;;;3.75;1.52;;;;;;;;;;4848191;29;32153;-69
2021/11/23 07:39:56;;;;;;;4.60;1.77;;;;;;;;;;4846981;29;32283;-68
2021/11/23 07:42:23;;;;;;;5.50;1.95;;;;;;;;;;4847810;29;33422;-68
2021/11/23 07:44:49;;;;;;;4.22;1.40;;;;;;;;;;4847975;29;32321;-69
2021/11/23 07:47:17;;;;;;;3.88;1.75;;;;;;;;;;4847095;29;32224;-69
2021/11/23 07:49:44;;;;;;;5.07;1.50;;;;;;;;;;4847786;29;34610;-68
2021/11/23 07:52:14;;;;;;;2.88;1.33;;;;;;;;;;4847292;29;32304;-69
2021/11/23 07:54:40;;;;;;;2.75;1.25;;;;;;;;;;4847055;29;32265;-68
2021/11/23 07:57:07;;;;;;;6.32;1.23;;;;;;;;;;4847183;29;32180;-69
2021/11/23 07:59:33;;;;;;;4.25;1.73;;;;;;;;;;4847229;29;32399;-69
2021/11/23 08:02:00;;;;;;;2.15;1.13;;;;;;;;;;4847791;29;32272;-69
2021/11/23 08:04:28;;;;;;;2.95;1.10;;;;;;;;;;4847930;29;32083;-69
2021/11/23 08:06:54;;;;;;;3.40;1.25;;;;;;;;;;4847348;29;32213;-70
2021/11/23 08:09:21;;;;;;;6.63;1.30;;;;;;;;;;4847810;29;32358;-69
2021/11/23 08:11:48;;;;;;;4.57;1.45;;;;;;;;;;4847370;29;34131;-70
2021/11/23 08:14:14;;;;;;;1.58;1.25;;;;;;;;;;4847094;29;32560;-70
2021/11/23 08:16:41;;;;;;;2.15;1.15;;;;;;;;;;4847244;29;32159;-70
2021/11/23 08:19:08;;;;;;;5.63;1.75;;;;;;;;;;4847284;29;32322;-71
2021/11/23 08:21:36;;;;;;;2.65;1.45;;;;;;;;;;4847312;29;31716;-70
2021/11/23 08:24:02;;;;;;;2.67;1.35;;;;;;;;;;4847564;29;32260;-70
2021/11/23 08:26:29;;;;;;;2.08;1.63;;;;;;;;;;4847265;29;32495;-70
2021/11/23 08:28:55;;;;;;;3.90;1.60;;;;;;;;;;4847195;29;32360;-70
2021/11/23 08:31:22;;;;;;;4.65;1.40;;;;;;;;;;4850289;29;32302;-70
2021/11/23 08:33:49;;;;;;;3.28;1.30;;;;;;;;;;4849803;29;35137;-69
2021/11/23 08:36:15;;;;;;;2.00;1.30;;;;;;;;;;4849996;29;32225;-69
2021/11/23 08:38:44;;;;;;;2.05;1.02;;;;;;;;;;4849589;29;32258;-69
2021/11/23 08:41:11;;;;;;;4.30;1.27;;;;;;;;;;4850398;29;32273;-69
2021/11/23 08:43:37;;;;;;;5.30;1.13;;;;;;;;;;4849849;29;32169;-69
2021/11/23 08:46:04;;;;;;;1.83;1.25;;;;;;;;;;4849406;29;32354;-69
2021/11/23 08:48:32;;;;;;;1.70;1.23;;;;;;;;;;4849639;29;32073;-69
2021/11/23 08:50:59;;;;;;;3.03;1.23;;;;;;;;;;4849933;29;32256;-69
2021/11/23 08:53:25;;;;;;;4.45;1.30;;;;;;;;;;4849679;29;32416;-69
2021/11/23 08:55:53;;;;;;;5.03;1.63;;;;;;;;;;4850156;29;34552;-69
2021/11/23 08:58:20;;;;;;;4.63;1.65;;;;;;;;;;4849056;29;32304;-68
2021/11/23 09:00:46;;;;;;;2.67;1.23;;;;;;;;;;4849928;29;32197;-69
2021/11/23 09:03:13;;;;;;;2.80;1.40;;;;;;;;;;4848320;29;32723;-69
2021/11/23 09:05:40;;;;;;;6.15;1.65;;;;;;;;;;4849787;29;34622;-69
2021/11/23 09:08:07;;;;;;;3.53;1.55;;;;;;;;;;4849386;29;32275;-70
2021/11/23 09:10:38;;;;;;;4.00;1.38;;;;;;;;;;4849755;29;32283;-69
2021/11/23 09:13:07;;;;;;;2.53;1.58;;;;;;;;;;4850124;29;32536;-70
2021/11/23 09:15:34;;;;;;;6.35;1.63;;;;;;;;;;4849598;29;32237;-70
2021/11/23 09:18:03;;;;;;;4.68;1.77;;;;;;;;;;4849354;29;34619;-70
2021/11/23 09:20:35;;;;;;;3.28;1.45;;;;;;;;;;4849262;29;32280;-70
2021/11/23 09:23:05;;;;;;;4.00;2.03;;;;;;;;;;4848915;29;32399;-69
2021/11/23 09:25:32;;;;;;;5.72;1.48;;;;;;;;;;4849569;29;32163;-69
2021/11/23 09:28:00;;;;;;;5.22;2.03;;;;;;;;;;4849291;29;35347;-69
2021/11/23 09:30:30;;;;;;;3.33;1.73;;;;;;;;;;4849374;29;32272;-69
2021/11/23 09:32:58;;;;;;;2.92;1.58;;;;;;;;;;4850128;29;32162;-70
2021/11/23 09:35:25;;;;;;;7.00;1.77;;;;;;;;;;4849434;29;32256;-69
2021/11/23 09:37:52;;;;;;;5.65;1.73;;;;;;;;;;4849511;29;32297;-69
2021/11/23 09:40:19;;;;;;;;;;;;;;;;;;4849246;29;34782;-69
2021/11/23 09:42:47;;;;;;;5.45;1.55;;;;;;;;;;4848363;29;32357;-69
2021/11/23 09:45:14;;;;;;;6.72;1.92;;;;;;;;;;4849042;29;32505;-69
2021/11/23 09:47:42;;;;;;;4.90;1.73;;;;;;;;;;4848655;29;32265;-69
2021/11/23 09:50:09;;;;;;;4.20;1.70;;;;;;;;;;4848208;29;34473;-68
2021/11/23 09:52:36;;;;;;;;;;;;;;;;;;4848634;29;32278;-69
2021/11/23 09:55:04;;;;;;;;;;;;;;;;;;4848865;29;32414;-68
2021/11/23 09:57:30;;;;;;;4.30;1.27;;;;;;;;;;4849282;29;32183;-69
2021/11/23 09:59:57;;;;;;;3.25;1.58;;;;;;;;;;4850031;29;32369;-68
2021/11/23 10:02:25;;;;;;;3.13;1.50;;;;;;;;;;4849078;29;34527;-68
2021/11/23 10:05:07;;;;;;;5.07;1.20;;;;;;;;;;4849862;29;32326;-68
2021/11/23 10:07:36;;;;;;;4.40;1.70;;;;;;;;;;4848510;29;32207;-68
2021/11/23 10:10:16;;;;;;;5.80;1.40;;;;;;;;;;4849018;29;32277;-68
2021/11/23 10:12:54;;;;;;;3.83;2.00;;;;;;;;;;4849046;29;34761;-69
2021/11/23 10:15:25;;;;;;;5.22;1.77;;;;;;;;;;4848465;29;32292;-68
2021/11/23 10:18:03;;;;;;;5.93;1.55;;;;;;;;;;4848872;29;32275;-68
2021/11/23 10:20:35;;;;;;;4.03;1.92;;;;;;;;;;4848588;29;32171;-67
2021/11/23 10:23:15;;;;;;;4.05;1.75;;;;;;;;;;4849143;29;32174;-68
2021/11/23 10:25:43;;;;;;;8.65;1.92;;;;;;;;;;4848363;29;33888;-68
2021/11/23 10:28:10;;;;;;;6.03;1.83;;;;;;;;;;4848057;29;32881;-67
2021/11/23 10:30:43;;;;;;;3.53;1.48;;;;;;;;;;4848432;29;32391;-68
2021/11/23 10:33:10;;;;;;;7.78;2.08;;;;;;;;;;4848479;29;32277;-68
2021/11/23 10:35:42;;;;;;;3.38;1.60;;;;;;;;;;4848535;29;34447;-68
2021/11/23 10:38:10;;;;;;;5.03;1.65;;;;;;;;;;4830896;29;32446;-69
2021/11/23 10:40:39;;;;;;;5.57;1.75;;;;;;;;;;4848112;29;32349;-68
2021/11/23 10:43:09;;;;;;;3.30;1.83;;;;;;;;;;4848029;29;32250;-68
2021/11/23 10:45:39;;;;;;;4.65;1.73;;;;;;;;;;4848515;29;32210;-68
2021/11/23 10:48:09;;;;;;;2.40;1.40;;;;;;;;;;4848347;29;34553;-68
2021/11/23 10:50:38;;;;;;;5.65;1.65;;;;;;;;;;4848059;29;32419;-68
2021/11/23 10:53:08;;;;;;;4.28;1.70;;;;;;;;;;4848310;29;32102;-69
2021/11/23 10:55:37;;;;;;;6.30;2.25;;;;;;;;;;4848264;29;32146;-69
2021/11/23 10:58:06;;;;;;;9.88;2.10;;;;;;;;;;4848794;29;34063;-68
2021/11/23 11:00:36;;;;;;;4.60;2.20;;;;;;;;;;4848386;29;32222;-68
2021/11/23 11:03:04;;;;;;;8.75;1.65;;;;;;;;;;4848135;29;32170;-68
2021/11/23 11:05:33;;;;;;;3.50;1.63;;;;;;;;;;4848228;29;32226;-68
2021/11/23 11:08:02;;;;;;;5.80;2.10;;;;;;;;;;4848405;29;32403;-68
2021/11/23 11:10:30;;;;;;;3.25;1.98;;;;;;;;;;4838642;29;35738;-69
2021/11/23 11:12:58;;;;;;;5.80;1.92;;;;;;;;;;4830152;29;32615;-68
2021/11/23 11:15:36;;;;;;;5.30;2.00;;;;;;;;;;4845051;29;32207;-68
2021/11/23 11:18:10;;;;;;;6.07;2.47;;;;;;;;;;4831217;29;32383;-69
2021/11/23 11:20:44;;;;;;;4.55;2.17;;;;;;;;;;4841525;29;34025;-69
2021/11/23 11:23:14;;;;;;;5.43;2.47;;;;;;;;;;4843507;29;32292;-69
2021/11/23 11:26:04;;;;;;;6.30;2.40;;;;;;;;;;4831517;29;32592;-69
2021/11/23 11:28:45;;;;;;;4.75;1.90;;;;;;;;;;4829782;29;32229;-69
2021/11/23 11:31:39;;;;;;;5.95;2.38;;;;;;;;;;4837662;29;32169;-68
2021/11/23 11:34:31;;;;;;;5.60;2.40;;;;;;;;;;4836684;29;34529;-70
2021/11/23 11:37:06;;;;;;;5.03;2.00;;;;;;;;;;4811045;29;32456;-69
2021/11/23 11:40:03;;;;;;;5.07;2.05;;;;;;;;;;4820347;29;32274;-69
2021/11/23 11:42:50;;;;;;;3.13;1.67;;;;;;;;;;4794678;29;32311;-69
2021/11/23 11:45:19;;;;;;;2.97;1.92;;;;;;;;;;4834025;29;34655;-69
2021/11/23 11:47:47;;;;;;;5.35;1.85;;;;;;;;;;4846711;29;32154;-68
2021/11/23 11:50:35;;;;;;;5.15;1.85;;;;;;;;;;4847075;29;32288;-69
2021/11/23 11:53:09;;;;;;;2.97;1.73;;;;;;;;;;4847960;29;32177;-69
2021/11/23 11:55:50;;;;;;;2.80;1.92;;;;;;;;;;4847275;29;32279;-68
2021/11/23 11:59:00;;;;;;;;;;;;;;;;;;4839498;29;35273;-68
2021/11/23 12:01:32;;;;;;;5.10;2.78;;;;;;;;;;4763148;29;32222;-69
2021/11/23 12:04:14;;;;;;;3.33;1.90;;;;;;;;;;4820028;29;32583;-69
2021/11/23 12:07:07;;;;;;;3.78;1.50;;;;;;;;;;4844552;29;32225;-68
2021/11/23 12:09:37;;;;;;;2.92;1.48;;;;;;;;;;4847276;29;35482;-68
2021/11/23 12:12:51;;;;;;;6.13;1.45;;;;;;;;;;4847061;29;32159;-68
2021/11/23 12:15:36;;;;;;;3.00;1.58;;;;;;;;;;4837695;29;32572;-68
2021/11/23 12:18:56;;;;;;;4.55;1.80;;;;;;;;;;4834797;29;32393;-69
2021/11/23 12:21:28;;;;;;;3.63;2.15;;;;;;;;;;4833533;29;32205;-68
2021/11/23 12:23:58;;;;;;;5.40;1.77;;;;;;;;;;4833107;29;35806;-68
2021/11/23 12:26:27;;;;;;;5.00;1.98;;;;;;;;;;4837294;29;32407;-68
2021/11/23 12:28:57;;;;;;;4.28;1.60;;;;;;;;;;4834667;29;32094;-68
2021/11/23 12:31:27;;;;;;;7.00;1.95;;;;;;;;;;4838309;29;32344;-68
2021/11/23 12:33:59;;;;;;;3.85;1.70;;;;;;;;;;4831629;29;36195;-70
2021/11/23 12:36:28;;;;;;;3.78;1.85;;;;;;;;;;4839159;29;32576;-68
2021/11/23 12:39:09;;;;;;;6.10;1.98;;;;;;;;;;4844171;29;32534;-69
2021/11/23 12:41:36;;;;;;;5.55;2.22;;;;;;;;;;4830201;29;32262;-70
2021/11/23 12:44:17;;;;;;;3.20;1.63;;;;;;;;;;4828861;29;32300;-69
2021/11/23 12:46:53;;;;;;;5.00;2.05;;;;;;;;;;4827812;29;35283;-69
2021/11/23 12:49:19;;;;;;;5.78;2.45;;;;;;;;;;4832930;29;32160;-69
2021/11/23 12:51:54;;;;;;;6.10;1.92;;;;;;;;;;4827643;29;32943;-69
2021/11/23 12:54:25;;;;;;;5.20;2.25;;;;;;;;;;4845262;29;32313;-68
2021/11/23 12:57:02;;;;;;;7.97;2.00;;;;;;;;;;4845667;29;35187;-69
2021/11/23 12:59:37;;;;;;;6.75;2.20;;;;;;;;;;4846130;29;32617;-69
2021/11/23 13:02:25;;;;;;;6.47;2.10;;;;;;;;;;4846255;29;32196;-69
2021/11/23 13:04:54;;;;;;;9.05;2.20;;;;;;;;;;4846546;29;32181;-70
2021/11/23 13:07:21;;;;;;;7.25;1.98;;;;;;;;;;4845234;29;32432;-70
2021/11/23 13:09:49;;;;;;;5.80;2.33;;;;;;;;;;4845341;29;35532;-70
2021/11/23 13:12:20;;;;;;;5.82;2.35;;;;;;;;;;4845413;29;32454;-68
2021/11/23 13:15:00;;;;;;;6.07;2.65;;;;;;;;;;4845747;29;32078;-68
2021/11/23 13:17:46;;;;;;;5.53;2.10;;;;;;;;;;4847660;29;32202;-68
2021/11/23 13:20:18;;;;;;;6.65;2.50;;;;;;;;;;4848048;29;35057;-69
2021/11/23 13:22:49;;;;;;;7.00;2.72;;;;;;;;;;4848457;29;32286;-69
2021/11/23 13:25:16;;;;;;;4.63;1.95;;;;;;;;;;4848294;29;32277;-70
2021/11/23 13:27:42;;;;;;;;;;;;;;;;;;4848008;29;32452;-69
2021/11/23 13:30:49;;;;;;;6.78;2.30;;;;;;;;;;4831439;29;32119;-69
2021/11/23 13:33:21;;;;;;;8.45;2.85;;;;;;;;;;4833766;29;35476;-69
2021/11/23 13:35:58;;;;;;;5.18;3.03;;;;;;;;;;4829838;29;32399;-68
2021/11/23 13:38:48;;;;;;;11.25;2.65;;;;;;;;;;4830151;29;32572;-68
2021/11/23 13:41:21;;;;;;;7.28;2.33;;;;;;;;;;4838442;29;32292;-68
2021/11/23 13:43:50;;;;;;;9.48;2.45;;;;;;;;;;4848578;29;35470;-68
2021/11/23 13:46:18;;;;;;;6.13;2.40;;;;;;;;;;4836289;29;32329;-67
2021/11/23 13:49:02;;;;;;;9.30;2.72;;;;;;;;;;4839235;29;33175;-71
2021/11/23 13:51:30;;;;;;;11.52;2.53;;;;;;;;;;4835464;29;32192;-68
2021/11/23 13:54:02;;;;;;;;;;;;;;;;;;4834525;29;32591;-68
2021/11/23 13:56:31;;;;;;;9.63;3.10;;;;;;;;;;4848548;29;34100;-68
2021/11/23 13:58:59;;;;;;;5.22;2.38;;;;;;;;;;4839061;29;32229;-69
2021/11/23 14:01:37;;;;;;;10.30;2.42;;;;;;;;;;4843439;29;32458;-71
2021/11/23 14:04:12;;;;;;;14.13;2.70;;;;;;;;;;4848637;29;32262;-72
2021/11/23 14:07:02;;;;;;;4.53;1.90;;;;;;;;;;4848325;29;33914;-70
2021/11/23 14:09:44;;;;;;;8.63;2.10;;;;;;;;;;4848043;29;32249;-70
2021/11/23 14:12:11;;;;;;;3.78;1.98;;;;;;;;;;4848232;29;32169;-70
2021/11/23 14:15:00;;;;;;;4.70;1.75;;;;;;;;;;4843357;29;32170;-72
2021/11/23 14:18:28;;;;;;;5.43;2.75;;;;;;;;;;4837709;29;32369;-71
2021/11/23 14:21:05;;;;;;;4.88;2.15;;;;;;;;;;4765383;29;34129;-70
2021/11/23 14:23:37;;;;;;;7.32;1.95;;;;;;;;;;4771644;29;32357;-70
2021/11/23 14:26:15;;;;;;;8.63;2.30;;;;;;;;;;4820340;29;32230;-70
2021/11/23 14:28:45;;;;;;;5.13;2.10;;;;;;;;;;4847914;29;32405;-71
2021/11/23 14:31:16;;;;;;;10.90;2.50;;;;;;;;;;4847719;29;35802;-72
2021/11/23 14:33:45;;;;;;;6.25;2.22;;;;;;;;;;4848221;29;32252;-70
2021/11/23 14:36:27;;;;;;;7.55;2.67;;;;;;;;;;4836274;29;32441;-69
2021/11/23 14:38:54;;;;;;;7.97;1.95;;;;;;;;;;4828554;29;32266;-70
2021/11/23 14:41:21;;;;;;;7.53;2.20;;;;;;;;;;4829939;29;32615;-71
2021/11/23 14:43:48;;;;;;;9.27;2.85;;;;;;;;;;4828986;29;34425;-69
2021/11/23 14:46:15;;;;;;;6.18;2.10;;;;;;;;;;4828870;29;32326;-70
2021/11/23 14:48:43;;;;;;;5.03;2.53;;;;;;;;;;4844224;29;32249;-70
2021/11/23 14:51:09;;;;;;;10.00;2.53;;;;;;;;;;4848047;29;32415;-72
2021/11/23 14:53:36;;;;;;;4.72;2.00;;;;;;;;;;4845899;29;34066;-69
2021/11/23 14:56:04;;;;;;;6.45;2.45;;;;;;;;;;4847624;29;32594;-69
2021/11/23 14:58:30;;;;;;;6.32;2.60;;;;;;;;;;4848426;29;32502;-70
2021/11/23 15:00:57;;;;;;;6.03;2.20;;;;;;;;;;4845825;29;32181;-68